Terminal Aerodrome Forecast
Issued by NWS Lake Charles, LA

Home | Current Version | Previous Version | Text Only | Print | Product List | Glossary On
Versions: 1 2 3 4 5 6 7 8 9 10 11 12 13 14 15 16 17 18 19 20 21
000
FTUS44 KLCH 291720
TAFBPT
TAF
KBPT 291720Z 2918/3018 15018G25KT P6SM VCTS SCT025CB BKN035
      TEMPO 2918/2922 VRB20G35KT 2SM TSRA BKN025CB
     FM292200 16017G24KT P6SM VCTS SCT025CB BKN035
      TEMPO 2922/3002 VRB20G35KT 2SM TSRA BKN025CB
     FM300400 19010KT P6SM VCSH OVC015
     FM301000 28008KT P6SM BKN025=

USA.gov is the U.S. government's official web portal to all federal, state and local government web resources and services.